sensor_id;sensor_type;location;lat;lon;timestamp;temperature;humidity
67598;DHT22;62026;39.230;9.122;2022-11-15T00:02:27;18.70;66.40
67598;DHT22;62026;39.230;9.122;2022-11-15T00:05:12;18.70;66.50
67598;DHT22;62026;39.230;9.122;2022-11-15T00:07:57;18.70;66.40
67598;DHT22;62026;39.230;9.122;2022-11-15T00:10:41;18.60;66.50
67598;DHT22;62026;39.230;9.122;2022-11-15T00:13:26;18.60;66.40
67598;DHT22;62026;39.230;9.122;2022-11-15T00:16:12;18.60;66.30
67598;DHT22;62026;39.230;9.122;2022-11-15T00:18:56;18.50;66.30
67598;DHT22;62026;39.230;9.122;2022-11-15T00:21:41;18.50;66.30
67598;DHT22;62026;39.230;9.122;2022-11-15T00:24:26;18.50;66.10
67598;DHT22;62026;39.230;9.122;2022-11-15T00:27:11;18.50;66.00
67598;DHT22;62026;39.230;9.122;2022-11-15T00:29:55;18.50;66.00
67598;DHT22;62026;39.230;9.122;2022-11-15T00:32:40;18.40;66.30
67598;DHT22;62026;39.230;9.122;2022-11-15T00:35:25;18.40;66.20
67598;DHT22;62026;39.230;9.122;2022-11-15T00:38:09;18.30;66.40
67598;DHT22;62026;39.230;9.122;2022-11-15T00:40:54;18.30;66.40
67598;DHT22;62026;39.230;9.122;2022-11-15T00:43:39;18.40;66.50
67598;DHT22;62026;39.230;9.122;2022-11-15T00:46:24;18.30;66.70
67598;DHT22;62026;39.230;9.122;2022-11-15T00:49:08;18.30;66.70
67598;DHT22;62026;39.230;9.122;2022-11-15T00:51:53;18.30;66.80
67598;DHT22;62026;39.230;9.122;2022-11-15T00:54:37;18.30;66.90
67598;DHT22;62026;39.230;9.122;2022-11-15T00:57:22;18.30;67.10
67598;DHT22;62026;39.230;9.122;2022-11-15T01:00:07;18.30;67.00
67598;DHT22;62026;39.230;9.122;2022-11-15T01:02:52;18.30;67.00
67598;DHT22;62026;39.230;9.122;2022-11-15T01:05:37;18.30;67.00
67598;DHT22;62026;39.230;9.122;2022-11-15T01:08:22;18.30;67.00
67598;DHT22;62026;39.230;9.122;2022-11-15T01:11:11;18.30;66.80
67598;DHT22;62026;39.230;9.122;2022-11-15T01:13:56;18.30;66.90
67598;DHT22;62026;39.230;9.122;2022-11-15T01:16:41;18.30;66.80
67598;DHT22;62026;39.230;9.122;2022-11-15T01:19:25;18.30;66.90
67598;DHT22;62026;39.230;9.122;2022-11-15T01:22:10;18.20;67.00
67598;DHT22;62026;39.230;9.122;2022-11-15T01:24:54;18.20;67.10
67598;DHT22;62026;39.230;9.122;2022-11-15T01:27:39;18.30;67.00
67598;DHT22;62026;39.230;9.122;2022-11-15T01:30:24;18.30;67.10
67598;DHT22;62026;39.230;9.122;2022-11-15T01:33:08;18.30;67.10
67598;DHT22;62026;39.230;9.122;2022-11-15T01:35:53;18.30;67.00
67598;DHT22;62026;39.230;9.122;2022-11-15T01:38:38;18.30;66.90
67598;DHT22;62026;39.230;9.122;2022-11-15T01:41:26;18.30;66.70
67598;DHT22;62026;39.230;9.122;2022-11-15T01:47:24;18.20;66.50
67598;DHT22;62026;39.230;9.122;2022-11-15T01:50:18;18.20;66.30
67598;DHT22;62026;39.230;9.122;2022-11-15T01:53:06;18.20;66.10
67598;DHT22;62026;39.230;9.122;2022-11-15T01:55:52;18.10;66.10
67598;DHT22;62026;39.230;9.122;2022-11-15T01:58:39;18.00;66.20
67598;DHT22;62026;39.230;9.122;2022-11-15T02:01:26;18.00;66.20
67598;DHT22;62026;39.230;9.122;2022-11-15T02:04:19;18.00;66.30
67598;DHT22;62026;39.230;9.122;2022-11-15T02:07:11;18.00;66.30
67598;DHT22;62026;39.230;9.122;2022-11-15T02:10:04;18.00;66.20
67598;DHT22;62026;39.230;9.122;2022-11-15T02:12:53;18.00;66.40
67598;DHT22;62026;39.230;9.122;2022-11-15T02:29:10;18.00;66.50
67598;DHT22;62026;39.230;9.122;2022-11-15T02:38:40;18.00;66.80
67598;DHT22;62026;39.230;9.122;2022-11-15T02:41:48;18.00;66.80
67598;DHT22;62026;39.230;9.122;2022-11-15T02:44:43;18.00;66.80
67598;DHT22;62026;39.230;9.122;2022-11-15T02:47:32;18.00;66.80
67598;DHT22;62026;39.230;9.122;2022-11-15T02:50:27;17.90;66.90
67598;DHT22;62026;39.230;9.122;2022-11-15T02:53:14;17.90;66.90
67598;DHT22;62026;39.230;9.122;2022-11-15T02:56:00;17.90;67.00
67598;DHT22;62026;39.230;9.122;2022-11-15T03:02:01;17.90;66.90
67598;DHT22;62026;39.230;9.122;2022-11-15T03:05:29;17.90;67.00
67598;DHT22;62026;39.230;9.122;2022-11-15T03:09:04;17.90;67.00
67598;DHT22;62026;39.230;9.122;2022-11-15T03:11:59;17.90;66.90
67598;DHT22;62026;39.230;9.122;2022-11-15T03:18:05;17.90;67.10
67598;DHT22;62026;39.230;9.122;2022-11-15T03:21:00;17.90;67.10
67598;DHT22;62026;39.230;9.122;2022-11-15T03:23:47;17.90;67.10
67598;DHT22;62026;39.230;9.122;2022-11-15T03:26:36;17.90;67.10
67598;DHT22;62026;39.230;9.122;2022-11-15T03:29:28;17.90;67.10
67598;DHT22;62026;39.230;9.122;2022-11-15T03:32:20;17.90;67.10
67598;DHT22;62026;39.230;9.122;2022-11-15T03:35:27;17.90;67.10
67598;DHT22;62026;39.230;9.122;2022-11-15T03:38:22;17.90;67.10
67598;DHT22;62026;39.230;9.122;2022-11-15T03:41:18;17.90;67.10
67598;DHT22;62026;39.230;9.122;2022-11-15T03:47:38;17.90;67.10
67598;DHT22;62026;39.230;9.122;2022-11-15T03:50:26;17.90;67.20
67598;DHT22;62026;39.230;9.122;2022-11-15T03:53:13;17.90;67.20
67598;DHT22;62026;39.230;9.122;2022-11-15T03:55:58;17.90;67.20
67598;DHT22;62026;39.230;9.122;2022-11-15T03:58:42;17.90;67.40
67598;DHT22;62026;39.230;9.122;2022-11-15T04:01:26;17.90;67.40
67598;DHT22;62026;39.230;9.122;2022-11-15T04:04:11;17.90;67.50
67598;DHT22;62026;39.230;9.122;2022-11-15T04:06:56;17.90;67.50
67598;DHT22;62026;39.230;9.122;2022-11-15T04:09:40;17.80;67.60
67598;DHT22;62026;39.230;9.122;2022-11-15T04:12:45;17.80;67.60
67598;DHT22;62026;39.230;9.122;2022-11-15T04:15:33;17.80;67.60
67598;DHT22;62026;39.230;9.122;2022-11-15T04:18:18;17.90;67.60
67598;DHT22;62026;39.230;9.122;2022-11-15T04:21:03;17.90;67.60
67598;DHT22;62026;39.230;9.122;2022-11-15T04:24:06;17.90;67.70
67598;DHT22;62026;39.230;9.122;2022-11-15T04:26:57;17.80;67.90
67598;DHT22;62026;39.230;9.122;2022-11-15T04:29:42;17.80;67.80
67598;DHT22;62026;39.230;9.122;2022-11-15T04:32:26;17.80;67.90
67598;DHT22;62026;39.230;9.122;2022-11-15T04:35:11;17.80;67.90
67598;DHT22;62026;39.230;9.122;2022-11-15T04:37:57;17.80;68.00
67598;DHT22;62026;39.230;9.122;2022-11-15T04:40:42;17.80;67.90
67598;DHT22;62026;39.230;9.122;2022-11-15T04:43:27;17.80;67.80
67598;DHT22;62026;39.230;9.122;2022-11-15T04:46:11;17.80;67.80
67598;DHT22;62026;39.230;9.122;2022-11-15T04:48:56;17.80;67.70
67598;DHT22;62026;39.230;9.122;2022-11-15T04:51:41;17.70;67.90
67598;DHT22;62026;39.230;9.122;2022-11-15T04:54:25;17.70;67.90
67598;DHT22;62026;39.230;9.122;2022-11-15T04:57:10;17.70;67.90
67598;DHT22;62026;39.230;9.122;2022-11-15T04:59:54;17.80;67.90
67598;DHT22;62026;39.230;9.122;2022-11-15T05:02:39;17.70;67.80
67598;DHT22;62026;39.230;9.122;2022-11-15T05:05:43;17.70;67.80
67598;DHT22;62026;39.230;9.122;2022-11-15T05:08:27;17.70;67.80
67598;DHT22;62026;39.230;9.122;2022-11-15T05:11:12;17.70;67.80
67598;DHT22;62026;39.230;9.122;2022-11-15T05:13:57;17.70;67.70
67598;DHT22;62026;39.230;9.122;2022-11-15T05:16:42;17.70;67.90
67598;DHT22;62026;39.230;9.122;2022-11-15T05:19:26;17.70;67.90
67598;DHT22;62026;39.230;9.122;2022-11-15T05:22:11;17.70;67.80
67598;DHT22;62026;39.230;9.122;2022-11-15T05:24:56;17.70;67.80
67598;DHT22;62026;39.230;9.122;2022-11-15T05:27:40;17.70;67.80
67598;DHT22;62026;39.230;9.122;2022-11-15T05:30:25;17.60;67.80
67598;DHT22;62026;39.230;9.122;2022-11-15T05:33:10;17.60;67.90
67598;DHT22;62026;39.230;9.122;2022-11-15T05:36:00;17.60;67.90
67598;DHT22;62026;39.230;9.122;2022-11-15T05:38:49;17.60;67.90
67598;DHT22;62026;39.230;9.122;2022-11-15T05:41:43;17.60;68.00
67598;DHT22;62026;39.230;9.122;2022-11-15T05:44:32;17.60;67.90
67598;DHT22;62026;39.230;9.122;2022-11-15T05:47:23;17.60;67.90
67598;DHT22;62026;39.230;9.122;2022-11-15T05:50:14;17.50;68.10
67598;DHT22;62026;39.230;9.122;2022-11-15T05:53:01;17.50;68.00
67598;DHT22;62026;39.230;9.122;2022-11-15T05:55:47;17.50;68.10
67598;DHT22;62026;39.230;9.122;2022-11-15T05:58:36;17.50;68.20
67598;DHT22;62026;39.230;9.122;2022-11-15T06:01:21;17.50;68.10
67598;DHT22;62026;39.230;9.122;2022-11-15T06:04:06;17.50;68.10
67598;DHT22;62026;39.230;9.122;2022-11-15T06:06:51;17.40;68.10
67598;DHT22;62026;39.230;9.122;2022-11-15T06:09:36;17.50;68.20
67598;DHT22;62026;39.230;9.122;2022-11-15T06:12:20;17.50;68.20
67598;DHT22;62026;39.230;9.122;2022-11-15T06:15:05;17.40;68.20
67598;DHT22;62026;39.230;9.122;2022-11-15T06:17:50;17.40;68.20
67598;DHT22;62026;39.230;9.122;2022-11-15T06:20:34;17.40;68.20
67598;DHT22;62026;39.230;9.122;2022-11-15T06:23:19;17.40;68.20
67598;DHT22;62026;39.230;9.122;2022-11-15T06:26:04;17.40;68.10
67598;DHT22;62026;39.230;9.122;2022-11-15T06:28:48;17.40;68.10
67598;DHT22;62026;39.230;9.122;2022-11-15T06:31:34;17.40;68.00
67598;DHT22;62026;39.230;9.122;2022-11-15T06:34:19;17.30;68.00
67598;DHT22;62026;39.230;9.122;2022-11-15T06:37:03;17.30;68.00
67598;DHT22;62026;39.230;9.122;2022-11-15T06:39:48;17.30;67.90
67598;DHT22;62026;39.230;9.122;2022-11-15T06:42:32;17.30;67.90
67598;DHT22;62026;39.230;9.122;2022-11-15T06:45:17;17.40;67.70
67598;DHT22;62026;39.230;9.122;2022-11-15T06:48:02;17.40;67.60
67598;DHT22;62026;39.230;9.122;2022-11-15T06:50:54;17.40;67.40
67598;DHT22;62026;39.230;9.122;2022-11-15T06:53:40;17.40;67.30
67598;DHT22;62026;39.230;9.122;2022-11-15T06:56:25;17.40;67.10
67598;DHT22;62026;39.230;9.122;2022-11-15T06:59:09;17.40;67.00
67598;DHT22;62026;39.230;9.122;2022-11-15T07:01:54;17.40;67.10
67598;DHT22;62026;39.230;9.122;2022-11-15T07:04:39;17.40;67.00
67598;DHT22;62026;39.230;9.122;2022-11-15T07:07:23;17.40;67.00
67598;DHT22;62026;39.230;9.122;2022-11-15T07:10:08;17.40;66.80
67598;DHT22;62026;39.230;9.122;2022-11-15T07:12:54;17.40;66.90
67598;DHT22;62026;39.230;9.122;2022-11-15T07:15:39;17.40;66.90
67598;DHT22;62026;39.230;9.122;2022-11-15T07:18:24;17.40;67.00
67598;DHT22;62026;39.230;9.122;2022-11-15T07:21:09;17.50;66.80
67598;DHT22;62026;39.230;9.122;2022-11-15T07:23:55;17.50;66.80
67598;DHT22;62026;39.230;9.122;2022-11-15T07:26:39;17.50;66.80
67598;DHT22;62026;39.230;9.122;2022-11-15T07:29:24;17.50;66.80
67598;DHT22;62026;39.230;9.122;2022-11-15T07:32:09;17.60;66.70
67598;DHT22;62026;39.230;9.122;2022-11-15T07:34:53;17.70;66.70
67598;DHT22;62026;39.230;9.122;2022-11-15T07:37:38;17.80;66.50
67598;DHT22;62026;39.230;9.122;2022-11-15T07:40:23;17.90;66.20
67598;DHT22;62026;39.230;9.122;2022-11-15T07:43:08;18.00;66.20
67598;DHT22;62026;39.230;9.122;2022-11-15T07:45:53;18.00;66.10
67598;DHT22;62026;39.230;9.122;2022-11-15T07:48:38;17.90;66.30
67598;DHT22;62026;39.230;9.122;2022-11-15T07:51:24;17.90;66.30
67598;DHT22;62026;39.230;9.122;2022-11-15T07:54:08;18.10;66.20
67598;DHT22;62026;39.230;9.122;2022-11-15T07:56:53;18.30;65.70
67598;DHT22;62026;39.230;9.122;2022-11-15T07:59:38;18.70;65.40
67598;DHT22;62026;39.230;9.122;2022-11-15T08:02:22;19.00;64.80
67598;DHT22;62026;39.230;9.122;2022-11-15T08:05:07;19.30;64.30
67598;DHT22;62026;39.230;9.122;2022-11-15T08:07:55;19.50;63.70
67598;DHT22;62026;39.230;9.122;2022-11-15T08:10:40;19.50;63.80
67598;DHT22;62026;39.230;9.122;2022-11-15T08:13:24;19.50;63.90
67598;DHT22;62026;39.230;9.122;2022-11-15T08:16:09;19.60;63.80
67598;DHT22;62026;39.230;9.122;2022-11-15T08:18:56;19.70;63.60
67598;DHT22;62026;39.230;9.122;2022-11-15T08:21:40;19.80;63.50
67598;DHT22;62026;39.230;9.122;2022-11-15T08:24:25;20.00;63.40
67598;DHT22;62026;39.230;9.122;2022-11-15T08:27:10;20.30;62.90
67598;DHT22;62026;39.230;9.122;2022-11-15T08:29:58;20.60;62.40
67598;DHT22;62026;39.230;9.122;2022-11-15T08:32:43;20.70;62.20
67598;DHT22;62026;39.230;9.122;2022-11-15T08:35:28;21.00;61.80
67598;DHT22;62026;39.230;9.122;2022-11-15T08:38:13;21.10;61.30
67598;DHT22;62026;39.230;9.122;2022-11-15T08:41:04;21.10;61.40
67598;DHT22;62026;39.230;9.122;2022-11-15T08:43:50;21.10;61.60
67598;DHT22;62026;39.230;9.122;2022-11-15T08:46:34;21.20;61.40
67598;DHT22;62026;39.230;9.122;2022-11-15T08:49:19;21.30;61.50
67598;DHT22;62026;39.230;9.122;2022-11-15T08:52:04;21.30;61.90
67598;DHT22;62026;39.230;9.122;2022-11-15T08:54:48;21.40;61.80
67598;DHT22;62026;39.230;9.122;2022-11-15T08:57:33;21.40;62.10
67598;DHT22;62026;39.230;9.122;2022-11-15T09:00:18;21.50;62.00
67598;DHT22;62026;39.230;9.122;2022-11-15T09:03:05;21.70;62.10
67598;DHT22;62026;39.230;9.122;2022-11-15T09:05:58;21.70;62.50
67598;DHT22;62026;39.230;9.122;2022-11-15T09:08:44;21.50;62.90
67598;DHT22;62026;39.230;9.122;2022-11-15T09:11:29;21.20;64.30
67598;DHT22;62026;39.230;9.122;2022-11-15T09:14:14;21.00;65.20
67598;DHT22;62026;39.230;9.122;2022-11-15T09:16:59;21.20;65.80
67598;DHT22;62026;39.230;9.122;2022-11-15T09:19:44;21.60;65.30
67598;DHT22;62026;39.230;9.122;2022-11-15T09:22:29;21.60;64.90
67598;DHT22;62026;39.230;9.122;2022-11-15T09:25:13;21.50;65.50
67598;DHT22;62026;39.230;9.122;2022-11-15T09:27:58;21.50;66.00
67598;DHT22;62026;39.230;9.122;2022-11-15T09:30:43;21.70;65.80
67598;DHT22;62026;39.230;9.122;2022-11-15T09:33:28;21.80;66.00
67598;DHT22;62026;39.230;9.122;2022-11-15T09:36:12;22.10;65.80
67598;DHT22;62026;39.230;9.122;2022-11-15T09:39:00;22.30;65.20
67598;DHT22;62026;39.230;9.122;2022-11-15T09:44:57;22.20;65.50
67598;DHT22;62026;39.230;9.122;2022-11-15T09:51:32;22.60;64.80
67598;DHT22;62026;39.230;9.122;2022-11-15T09:56:53;22.20;65.30
67598;DHT22;62026;39.230;9.122;2022-11-15T09:59:32;22.30;65.20
67598;DHT22;62026;39.230;9.122;2022-11-15T10:05:06;22.40;65.10
67598;DHT22;62026;39.230;9.122;2022-11-15T10:08:06;22.70;64.50
67598;DHT22;62026;39.230;9.122;2022-11-15T10:11:19;22.50;64.80
67598;DHT22;62026;39.230;9.122;2022-11-15T10:13:48;22.60;65.00
67598;DHT22;62026;39.230;9.122;2022-11-15T10:19:42;22.50;64.70
67598;DHT22;62026;39.230;9.122;2022-11-15T10:22:49;22.20;65.70
67598;DHT22;62026;39.230;9.122;2022-11-15T10:25:23;22.20;66.00
67598;DHT22;62026;39.230;9.122;2022-11-15T10:30:36;22.00;67.00
67598;DHT22;62026;39.230;9.122;2022-11-15T10:33:35;22.00;67.10
67598;DHT22;62026;39.230;9.122;2022-11-15T10:43:44;21.80;67.40
67598;DHT22;62026;39.230;9.122;2022-11-15T10:46:26;21.90;67.50
67598;DHT22;62026;39.230;9.122;2022-11-15T10:48:52;21.70;67.60
67598;DHT22;62026;39.230;9.122;2022-11-15T10:51:28;21.70;68.10
67598;DHT22;62026;39.230;9.122;2022-11-15T10:54:00;21.70;67.60
67598;DHT22;62026;39.230;9.122;2022-11-15T10:56:27;21.90;66.90
67598;DHT22;62026;39.230;9.122;2022-11-15T10:58:57;21.90;67.30
67598;DHT22;62026;39.230;9.122;2022-11-15T11:01:25;22.00;67.10
67598;DHT22;62026;39.230;9.122;2022-11-15T11:06:56;22.00;66.50
67598;DHT22;62026;39.230;9.122;2022-11-15T11:09:27;21.90;66.70
67598;DHT22;62026;39.230;9.122;2022-11-15T11:11:54;21.80;66.80
67598;DHT22;62026;39.230;9.122;2022-11-15T11:14:25;21.70;67.20
67598;DHT22;62026;39.230;9.122;2022-11-15T11:31:13;21.60;67.10
67598;DHT22;62026;39.230;9.122;2022-11-15T11:39:58;21.60;66.40
67598;DHT22;62026;39.230;9.122;2022-11-15T11:48:45;21.40;66.00
67598;DHT22;62026;39.230;9.122;2022-11-15T11:51:24;21.30;66.70
67598;DHT22;62026;39.230;9.122;2022-11-15T11:54:05;21.30;67.10
67598;DHT22;62026;39.230;9.122;2022-11-15T11:56:41;21.40;66.80
67598;DHT22;62026;39.230;9.122;2022-11-15T11:59:36;21.40;66.60
67598;DHT22;62026;39.230;9.122;2022-11-15T12:02:15;21.40;66.30
67598;DHT22;62026;39.230;9.122;2022-11-15T12:04:51;21.40;66.80
67598;DHT22;62026;39.230;9.122;2022-11-15T12:07:33;21.40;67.30
67598;DHT22;62026;39.230;9.122;2022-11-15T12:10:23;21.30;67.50
67598;DHT22;62026;39.230;9.122;2022-11-15T12:13:30;21.30;67.50
67598;DHT22;62026;39.230;9.122;2022-11-15T12:16:18;21.30;67.60
67598;DHT22;62026;39.230;9.122;2022-11-15T12:18:52;21.30;67.50
67598;DHT22;62026;39.230;9.122;2022-11-15T12:24:26;21.30;67.30
67598;DHT22;62026;39.230;9.122;2022-11-15T12:27:04;21.20;67.80
67598;DHT22;62026;39.230;9.122;2022-11-15T12:29:38;21.30;66.80
67598;DHT22;62026;39.230;9.122;2022-11-15T12:32:27;21.30;66.90
67598;DHT22;62026;39.230;9.122;2022-11-15T12:34:55;21.30;66.30
67598;DHT22;62026;39.230;9.122;2022-11-15T12:46:03;21.10;67.80
67598;DHT22;62026;39.230;9.122;2022-11-15T12:51:03;21.10;68.70
67598;DHT22;62026;39.230;9.122;2022-11-15T12:53:33;21.10;68.90
67598;DHT22;62026;39.230;9.122;2022-11-15T12:58:44;21.10;68.20
67598;DHT22;62026;39.230;9.122;2022-11-15T13:04:28;21.10;68.20
67598;DHT22;62026;39.230;9.122;2022-11-15T13:06:59;21.00;68.30
67598;DHT22;62026;39.230;9.122;2022-11-15T13:12:08;21.00;68.30
67598;DHT22;62026;39.230;9.122;2022-11-15T13:14:51;21.00;68.50
67598;DHT22;62026;39.230;9.122;2022-11-15T13:17:28;21.00;67.70
67598;DHT22;62026;39.230;9.122;2022-11-15T13:22:50;21.10;67.40
67598;DHT22;62026;39.230;9.122;2022-11-15T13:30:51;21.00;68.60
67598;DHT22;62026;39.230;9.122;2022-11-15T13:33:32;21.10;68.80
67598;DHT22;62026;39.230;9.122;2022-11-15T13:36:06;21.10;68.40
67598;DHT22;62026;39.230;9.122;2022-11-15T13:38:40;21.00;69.50
67598;DHT22;62026;39.230;9.122;2022-11-15T13:41:21;21.00;69.60
67598;DHT22;62026;39.230;9.122;2022-11-15T13:43:54;21.00;68.80
67598;DHT22;62026;39.230;9.122;2022-11-15T13:54:27;21.00;68.20
67598;DHT22;62026;39.230;9.122;2022-11-15T13:57:11;21.00;68.60
67598;DHT22;62026;39.230;9.122;2022-11-15T13:59:46;21.00;69.00
67598;DHT22;62026;39.230;9.122;2022-11-15T14:02:27;21.00;69.20
67598;DHT22;62026;39.230;9.122;2022-11-15T14:05:00;21.00;69.00
67598;DHT22;62026;39.230;9.122;2022-11-15T14:07:55;21.00;68.70
67598;DHT22;62026;39.230;9.122;2022-11-15T14:10:44;21.00;68.60
67598;DHT22;62026;39.230;9.122;2022-11-15T14:13:27;21.00;69.00
67598;DHT22;62026;39.230;9.122;2022-11-15T14:16:16;21.00;69.10
67598;DHT22;62026;39.230;9.122;2022-11-15T14:18:49;21.00;69.70
67598;DHT22;62026;39.230;9.122;2022-11-15T14:21:18;20.90;69.60
67598;DHT22;62026;39.230;9.122;2022-11-15T14:23:45;21.00;69.80
67598;DHT22;62026;39.230;9.122;2022-11-15T14:26:33;20.90;70.10
67598;DHT22;62026;39.230;9.122;2022-11-15T14:29:28;20.90;70.30
67598;DHT22;62026;39.230;9.122;2022-11-15T14:32:15;20.90;70.10
67598;DHT22;62026;39.230;9.122;2022-11-15T14:34:43;20.90;70.30
67598;DHT22;62026;39.230;9.122;2022-11-15T14:37:21;20.90;70.20
67598;DHT22;62026;39.230;9.122;2022-11-15T14:39:49;20.90;70.30
67598;DHT22;62026;39.230;9.122;2022-11-15T14:42:16;20.90;70.30
67598;DHT22;62026;39.230;9.122;2022-11-15T14:44:43;20.80;70.40
67598;DHT22;62026;39.230;9.122;2022-11-15T14:47:09;20.80;70.50
67598;DHT22;62026;39.230;9.122;2022-11-15T14:49:35;20.90;70.50
67598;DHT22;62026;39.230;9.122;2022-11-15T14:52:01;20.80;70.40
67598;DHT22;62026;39.230;9.122;2022-11-15T14:54:27;20.90;70.40
67598;DHT22;62026;39.230;9.122;2022-11-15T14:56:53;20.80;70.40
67598;DHT22;62026;39.230;9.122;2022-11-15T14:59:19;20.80;70.50
67598;DHT22;62026;39.230;9.122;2022-11-15T15:01:45;20.90;70.40
67598;DHT22;62026;39.230;9.122;2022-11-15T15:04:11;20.80;70.60
67598;DHT22;62026;39.230;9.122;2022-11-15T15:06:38;20.80;70.70
67598;DHT22;62026;39.230;9.122;2022-11-15T15:09:04;20.80;70.60
67598;DHT22;62026;39.230;9.122;2022-11-15T15:11:31;20.90;70.60
67598;DHT22;62026;39.230;9.122;2022-11-15T15:13:58;20.80;70.60
67598;DHT22;62026;39.230;9.122;2022-11-15T15:16:26;20.80;70.50
67598;DHT22;62026;39.230;9.122;2022-11-15T15:18:53;20.80;70.20
67598;DHT22;62026;39.230;9.122;2022-11-15T15:21:23;20.80;70.50
67598;DHT22;62026;39.230;9.122;2022-11-15T15:23:51;20.80;70.90
67598;DHT22;62026;39.230;9.122;2022-11-15T15:26:20;20.80;70.80
67598;DHT22;62026;39.230;9.122;2022-11-15T15:28:46;20.80;70.90
67598;DHT22;62026;39.230;9.122;2022-11-15T15:31:14;20.80;70.80
67598;DHT22;62026;39.230;9.122;2022-11-15T15:33:40;20.80;70.80
67598;DHT22;62026;39.230;9.122;2022-11-15T15:36:14;20.80;71.00
67598;DHT22;62026;39.230;9.122;2022-11-15T15:38:43;20.70;71.10
67598;DHT22;62026;39.230;9.122;2022-11-15T15:41:14;20.80;70.90
67598;DHT22;62026;39.230;9.122;2022-11-15T15:43:41;20.80;70.90
67598;DHT22;62026;39.230;9.122;2022-11-15T15:46:25;20.80;71.00
67598;DHT22;62026;39.230;9.122;2022-11-15T15:48:51;20.80;70.80
67598;DHT22;62026;39.230;9.122;2022-11-15T15:51:17;20.80;70.80
67598;DHT22;62026;39.230;9.122;2022-11-15T15:53:43;20.80;70.80
67598;DHT22;62026;39.230;9.122;2022-11-15T15:56:09;20.80;70.60
67598;DHT22;62026;39.230;9.122;2022-11-15T15:58:35;20.70;70.60
67598;DHT22;62026;39.230;9.122;2022-11-15T16:01:01;20.70;70.60
67598;DHT22;62026;39.230;9.122;2022-11-15T16:03:27;20.70;70.40
67598;DHT22;62026;39.230;9.122;2022-11-15T16:05:53;20.70;70.20
67598;DHT22;62026;39.230;9.122;2022-11-15T16:08:21;20.70;70.00
67598;DHT22;62026;39.230;9.122;2022-11-15T16:10:49;20.70;69.90
67598;DHT22;62026;39.230;9.122;2022-11-15T16:13:15;20.70;69.70
67598;DHT22;62026;39.230;9.122;2022-11-15T16:15:43;20.70;69.60
67598;DHT22;62026;39.230;9.122;2022-11-15T16:18:15;20.70;69.40
67598;DHT22;62026;39.230;9.122;2022-11-15T16:20:45;20.60;68.50
67598;DHT22;62026;39.230;9.122;2022-11-15T16:23:16;20.60;68.30
67598;DHT22;62026;39.230;9.122;2022-11-15T16:25:51;20.60;68.10
67598;DHT22;62026;39.230;9.122;2022-11-15T16:28:28;20.60;67.70
67598;DHT22;62026;39.230;9.122;2022-11-15T16:31:04;20.60;67.50
67598;DHT22;62026;39.230;9.122;2022-11-15T16:33:33;20.60;67.50
67598;DHT22;62026;39.230;9.122;2022-11-15T16:36:00;20.60;67.40
67598;DHT22;62026;39.230;9.122;2022-11-15T16:38:26;20.60;67.20
67598;DHT22;62026;39.230;9.122;2022-11-15T16:40:52;20.60;67.20
67598;DHT22;62026;39.230;9.122;2022-11-15T16:43:19;20.60;67.10
67598;DHT22;62026;39.230;9.122;2022-11-15T16:45:45;20.60;67.10
67598;DHT22;62026;39.230;9.122;2022-11-15T16:48:26;20.60;67.00
67598;DHT22;62026;39.230;9.122;2022-11-15T16:50:57;20.60;67.00
67598;DHT22;62026;39.230;9.122;2022-11-15T16:53:26;20.60;66.80
67598;DHT22;62026;39.230;9.122;2022-11-15T16:55:53;20.50;66.70
67598;DHT22;62026;39.230;9.122;2022-11-15T16:58:20;20.50;66.60
67598;DHT22;62026;39.230;9.122;2022-11-15T17:00:50;20.50;66.60
67598;DHT22;62026;39.230;9.122;2022-11-15T17:03:18;20.50;66.50
67598;DHT22;62026;39.230;9.122;2022-11-15T17:05:45;20.50;66.80
67598;DHT22;62026;39.230;9.122;2022-11-15T17:08:11;20.50;67.40
67598;DHT22;62026;39.230;9.122;2022-11-15T17:10:39;20.50;68.50
67598;DHT22;62026;39.230;9.122;2022-11-15T17:13:12;20.50;69.00
67598;DHT22;62026;39.230;9.122;2022-11-15T17:15:38;20.50;69.30
67598;DHT22;62026;39.230;9.122;2022-11-15T17:18:05;20.50;69.50
67598;DHT22;62026;39.230;9.122;2022-11-15T17:20:31;20.40;69.90
67598;DHT22;62026;39.230;9.122;2022-11-15T17:22:57;20.40;70.30
67598;DHT22;62026;39.230;9.122;2022-11-15T17:25:23;20.40;70.50
67598;DHT22;62026;39.230;9.122;2022-11-15T17:27:49;20.40;70.70
67598;DHT22;62026;39.230;9.122;2022-11-15T17:30:15;20.40;70.60
67598;DHT22;62026;39.230;9.122;2022-11-15T17:32:43;20.40;70.40
67598;DHT22;62026;39.230;9.122;2022-11-15T17:35:11;20.40;70.10
67598;DHT22;62026;39.230;9.122;2022-11-15T17:37:40;20.40;69.80
67598;DHT22;62026;39.230;9.122;2022-11-15T17:40:06;20.40;69.70
67598;DHT22;62026;39.230;9.122;2022-11-15T17:42:32;20.40;69.80
67598;DHT22;62026;39.230;9.122;2022-11-15T17:44:58;20.40;69.90
67598;DHT22;62026;39.230;9.122;2022-11-15T17:47:24;20.30;70.00
67598;DHT22;62026;39.230;9.122;2022-11-15T17:49:50;20.30;70.10
67598;DHT22;62026;39.230;9.122;2022-11-15T17:52:16;20.30;70.20
67598;DHT22;62026;39.230;9.122;2022-11-15T17:54:42;20.30;70.20
67598;DHT22;62026;39.230;9.122;2022-11-15T17:57:09;20.30;70.10
67598;DHT22;62026;39.230;9.122;2022-11-15T17:59:35;20.30;70.10
67598;DHT22;62026;39.230;9.122;2022-11-15T18:02:01;20.30;70.10
67598;DHT22;62026;39.230;9.122;2022-11-15T18:04:27;20.30;70.10
67598;DHT22;62026;39.230;9.122;2022-11-15T18:06:54;20.30;70.20
67598;DHT22;62026;39.230;9.122;2022-11-15T18:09:22;20.30;70.10
67598;DHT22;62026;39.230;9.122;2022-11-15T18:11:49;20.30;70.20
67598;DHT22;62026;39.230;9.122;2022-11-15T18:14:17;20.30;70.10
67598;DHT22;62026;39.230;9.122;2022-11-15T18:16:44;20.30;70.10
67598;DHT22;62026;39.230;9.122;2022-11-15T18:19:10;20.20;70.10
67598;DHT22;62026;39.230;9.122;2022-11-15T18:21:39;20.20;70.10
67598;DHT22;62026;39.230;9.122;2022-11-15T18:24:27;20.20;70.10
67598;DHT22;62026;39.230;9.122;2022-11-15T18:26:56;20.20;70.00
67598;DHT22;62026;39.230;9.122;2022-11-15T18:29:23;20.20;70.10
67598;DHT22;62026;39.230;9.122;2022-11-15T18:31:49;20.20;70.20
67598;DHT22;62026;39.230;9.122;2022-11-15T18:34:23;20.20;70.00
67598;DHT22;62026;39.230;9.122;2022-11-15T18:36:53;20.10;70.00
67598;DHT22;62026;39.230;9.122;2022-11-15T18:39:19;20.10;69.90
67598;DHT22;62026;39.230;9.122;2022-11-15T18:41:45;20.10;70.00
67598;DHT22;62026;39.230;9.122;2022-11-15T18:44:12;20.10;69.90
67598;DHT22;62026;39.230;9.122;2022-11-15T18:46:38;20.10;69.80
67598;DHT22;62026;39.230;9.122;2022-11-15T18:49:05;20.10;69.70
67598;DHT22;62026;39.230;9.122;2022-11-15T18:51:35;20.10;69.70
67598;DHT22;62026;39.230;9.122;2022-11-15T18:54:03;20.10;69.60
67598;DHT22;62026;39.230;9.122;2022-11-15T18:56:30;20.10;69.40
67598;DHT22;62026;39.230;9.122;2022-11-15T18:58:59;20.10;69.40